Time;durP1;ratioP1;P1;durP2;ratioP2;P2;SDS_P1;SDS_P2;PMS_P1;PMS_P2;Temp;Humidity;BMP_temperature;BMP_pressure;BME280_temperature;BME280_humidity;BME280_pressure;Samples;Min_cycle;Max_cycle;Signal;HPM_P1;HPM_P2
2022/05/07 00:00:41;;;;;;;8.25;4.50;;;;;;;7.06;86.74;97964.00;5006353;28;20048;-63
2022/05/07 00:03:09;;;;;;;7.03;4.93;;;;;;;7.07;86.68;97964.84;5008134;28;20052;-64
2022/05/07 00:05:37;;;;;;;6.70;4.38;;;;;;;7.09;86.76;97968.13;4994722;28;20043;-64
2022/05/07 00:08:05;;;;;;;6.00;4.15;;;;;;;7.06;86.68;97957.78;5016243;28;20793;-65
2022/05/07 00:10:32;;;;;;;7.95;4.30;;;;;;;7.05;86.34;97967.75;5006637;28;20045;-63
2022/05/07 00:12:58;;;;;;;7.82;4.85;;;;;;;7.01;86.41;97961.94;5006304;28;20057;-64
2022/05/07 00:15:25;;;;;;;6.88;4.18;;;;;;;7.03;86.91;97956.34;4997488;28;20105;-64
2022/05/07 00:18:05;;;;;;;6.85;4.43;;;;;;;7.02;86.76;97947.47;4990042;28;20046;-63
2022/05/07 00:20:35;;;;;;;7.72;4.35;;;;;;;7.05;86.40;97943.53;5000258;28;20063;-64
2022/05/07 00:23:02;;;;;;;7.00;3.78;;;;;;;6.98;86.73;97945.41;4990359;28;20043;-64
2022/05/07 00:25:30;;;;;;;8.13;4.32;;;;;;;6.87;87.45;97952.28;5006002;28;20041;-63
2022/05/07 00:27:56;;;;;;;8.02;4.78;;;;;;;6.90;87.29;97947.28;5006075;28;20147;-64
2022/05/07 00:30:23;;;;;;;8.38;4.40;;;;;;;6.80;87.60;97944.25;4997921;28;20047;-63
2022/05/07 00:32:49;;;;;;;11.98;5.47;;;;;;;6.83;87.47;97945.69;5001057;28;20042;-64
2022/05/07 00:35:16;;;;;;;7.95;4.97;;;;;;;6.85;87.30;97949.81;4998273;28;20049;-64
2022/05/07 00:37:43;;;;;;;7.95;4.63;;;;;;;6.78;87.45;97951.69;5006213;28;20046;-64
2022/05/07 00:40:11;;;;;;;7.45;4.50;;;;;;;6.84;87.75;97948.16;5001676;28;20072;-64
2022/05/07 00:42:38;;;;;;;7.25;4.70;;;;;;;6.75;87.76;97946.75;4992300;28;20049;-64
2022/05/07 00:45:06;;;;;;;6.68;4.38;;;;;;;6.75;88.23;97944.06;4985620;28;20125;-63
2022/05/07 00:47:33;;;;;;;8.63;4.55;;;;;;;6.81;88.09;97943.19;4998965;28;20046;-64
2022/05/07 00:52:47;;;;;;;7.10;4.57;;;;;;;6.89;87.25;97942.13;4989165;28;20137;-64
2022/05/07 00:55:14;;;;;;;7.35;4.57;;;;;;;6.88;87.42;97935.94;4986066;28;20065;-64
2022/05/07 00:57:41;;;;;;;7.00;4.45;;;;;;;6.95;87.13;97938.59;4991279;28;20125;-63
2022/05/07 01:00:09;;;;;;;8.35;4.35;;;;;;;6.94;86.99;97933.41;5003874;28;20535;-64
2022/05/07 01:02:37;;;;;;;8.75;4.68;;;;;;;6.83;87.46;97929.53;4999763;28;20521;-64
2022/05/07 01:05:05;;;;;;;7.93;5.43;;;;;;;6.62;88.46;97931.47;4991466;28;20054;-64
2022/05/07 01:07:34;;;;;;;8.18;5.03;;;;;;;6.59;88.67;97930.03;4998971;28;20073;-64
2022/05/07 01:10:05;;;;;;;9.18;5.22;;;;;;;6.59;88.57;97934.56;5003682;28;20704;-64
2022/05/07 01:12:37;;;;;;;9.52;4.72;;;;;;;6.69;87.91;97929.59;4989134;28;20133;-62
2022/05/07 01:15:07;;;;;;;6.50;4.30;;;;;;;6.73;87.23;97929.97;4984862;28;20042;-61
2022/05/07 01:17:35;;;;;;;8.75;4.65;;;;;;;6.51;88.26;97927.56;4992014;28;20882;-65
2022/05/07 01:20:09;;;;;;;7.65;4.70;;;;;;;6.42;88.80;97932.38;4978699;28;20038;-63
2022/05/07 01:22:37;;;;;;;8.68;5.00;;;;;;;6.32;89.12;97930.13;5013289;28;20096;-63
2022/05/07 01:25:06;;;;;;;7.47;5.03;;;;;;;6.30;89.44;97923.31;4984958;28;20526;-63
2022/05/07 01:27:33;;;;;;;8.63;5.32;;;;;;;6.23;89.41;97931.38;4985581;28;20125;-63
2022/05/07 01:30:00;;;;;;;9.68;4.90;;;;;;;6.22;90.02;97930.53;4991189;28;20054;-64
2022/05/07 01:32:31;;;;;;;7.65;4.57;;;;;;;6.19;89.35;97930.16;4998476;28;20551;-63
2022/05/07 01:34:58;;;;;;;7.03;4.57;;;;;;;6.17;89.92;97930.34;5000393;28;20169;-64
2022/05/07 01:37:25;;;;;;;7.30;4.80;;;;;;;6.16;89.85;97931.38;5001127;28;20076;-63
2022/05/07 01:39:52;;;;;;;7.93;4.72;;;;;;;6.08;89.79;97931.63;4997488;28;20037;-64
2022/05/07 01:42:20;;;;;;;6.75;4.35;;;;;;;6.10;90.01;97924.16;4996474;28;20533;-65
2022/05/07 01:44:46;;;;;;;8.55;4.47;;;;;;;6.07;90.22;97930.78;4986762;28;20519;-63
2022/05/07 01:50:00;;;;;;;6.97;4.72;;;;;;;6.01;90.52;97930.75;5004707;28;20575;-65
2022/05/07 01:52:29;;;;;;;8.52;5.40;;;;;;;5.98;90.49;97932.00;5001868;28;20050;-64
2022/05/07 01:54:56;;;;;;;11.15;5.38;;;;;;;5.90;90.73;97927.66;5004457;28;20052;-64
2022/05/07 01:57:23;;;;;;;6.85;4.50;;;;;;;5.95;90.73;97927.88;4990879;28;20046;-65
2022/05/07 01:59:51;;;;;;;8.57;4.88;;;;;;;5.93;90.28;97938.00;4995905;28;20100;-64
2022/05/07 02:02:18;;;;;;;6.60;4.13;;;;;;;5.92;90.53;97936.34;5002123;28;20054;-64
2022/05/07 02:04:45;;;;;;;7.50;4.50;;;;;;;5.95;90.55;97937.78;4993563;28;20050;-62
2022/05/07 02:07:14;;;;;;;6.80;4.63;;;;;;;5.96;90.41;97929.53;5004545;28;20064;-63
2022/05/07 02:09:41;;;;;;;8.25;4.80;;;;;;;5.93;90.73;97938.00;5003369;28;20057;-64
2022/05/07 02:12:09;;;;;;;7.40;4.50;;;;;;;5.85;90.96;97941.72;4992297;28;20053;-64
2022/05/07 02:14:40;;;;;;;9.52;4.63;;;;;;;5.85;90.83;97928.28;4993569;28;20112;-63
2022/05/07 02:17:06;;;;;;;6.65;4.70;;;;;;;5.87;90.96;97933.47;5004134;28;20088;-62
2022/05/07 02:19:33;;;;;;;8.00;4.38;;;;;;;5.82;91.25;97934.06;5001174;28;20030;-62
2022/05/07 02:22:00;;;;;;;7.22;5.00;;;;;;;5.83;91.50;97929.53;5000843;28;20674;-63
2022/05/07 02:24:27;;;;;;;7.97;4.60;;;;;;;5.92;91.23;97925.59;5004382;28;20508;-63
2022/05/07 02:26:53;;;;;;;6.57;4.45;;;;;;;6.04;90.68;97927.69;5003004;28;20095;-62
2022/05/07 02:29:20;;;;;;;8.32;4.63;;;;;;;6.02;90.35;97927.03;5001019;28;20034;-63
2022/05/07 02:32:03;;;;;;;11.32;4.95;;;;;;;5.95;90.48;97930.56;5002350;28;20041;-64
2022/05/07 02:34:33;;;;;;;8.98;5.50;;;;;;;5.93;90.34;97929.94;5001702;28;20054;-64
2022/05/07 02:37:02;;;;;;;7.72;5.35;;;;;;;6.02;89.90;97932.41;4986108;28;20046;-63
2022/05/07 02:39:29;;;;;;;12.00;5.18;;;;;;;6.02;89.74;97933.25;5003410;28;20720;-63
2022/05/07 02:44:42;;;;;;;6.95;4.25;;;;;;;5.99;89.63;97933.66;4990913;28;20042;-63
2022/05/07 02:47:10;;;;;;;7.07;4.22;;;;;;;5.83;90.44;97935.72;4996456;28;20137;-64
2022/05/07 02:49:37;;;;;;;7.15;4.53;;;;;;;5.71;90.43;97932.84;5003340;28;20060;-63
2022/05/07 02:52:04;;;;;;;7.93;4.45;;;;;;;5.63;91.22;97935.72;5003098;28;20060;-63
2022/05/07 02:54:31;;;;;;;7.68;4.72;;;;;;;5.66;90.56;97938.00;5002625;28;20050;-64
2022/05/07 02:56:58;;;;;;;12.65;4.57;;;;;;;5.60;91.29;97936.13;4994105;28;20062;-64
2022/05/07 02:59:25;;;;;;;6.95;4.10;;;;;;;5.56;91.59;97927.66;4991390;28;20050;-64
2022/05/07 03:01:51;;;;;;;9.35;4.40;;;;;;;5.57;91.64;97932.00;5014370;28;20517;-63
2022/05/07 03:04:19;;;;;;;8.30;4.65;;;;;;;5.56;91.53;97934.88;5003436;28;20122;-63
2022/05/07 03:06:46;;;;;;;8.35;4.47;;;;;;;5.55;91.12;97927.84;5006348;28;20440;-63
2022/05/07 03:09:12;;;;;;;9.82;5.15;;;;;;;5.41;91.83;97932.38;5006219;28;20046;-63
2022/05/07 03:11:39;;;;;;;7.95;4.50;;;;;;;5.39;91.98;97927.25;4997848;28;20050;-63
2022/05/07 03:14:07;;;;;;;6.93;4.45;;;;;;;5.39;92.16;97927.25;4990576;28;20046;-63
2022/05/07 03:16:35;;;;;;;7.00;4.57;;;;;;;5.42;92.38;97921.44;5000285;28;20591;-63
2022/05/07 03:19:02;;;;;;;9.13;4.82;;;;;;;5.46;92.15;97919.19;4995548;28;20052;-63
2022/05/07 03:21:29;;;;;;;9.23;4.47;;;;;;;5.50;91.62;97927.66;4997545;28;20796;-63
2022/05/07 03:23:56;;;;;;;6.55;4.95;;;;;;;5.44;91.58;97929.28;4987367;28;20074;-63
2022/05/07 03:26:22;;;;;;;6.00;4.00;;;;;;;5.41;91.42;97921.63;4994614;28;20137;-64
2022/05/07 03:28:49;;;;;;;10.95;4.68;;;;;;;5.35;91.32;97923.31;5019632;28;20521;-64
2022/05/07 03:31:19;;;;;;;10.20;4.85;;;;;;;5.25;91.87;97923.69;5002990;28;20205;-63
2022/05/07 03:33:46;;;;;;;7.90;4.47;;;;;;;5.16;92.49;97920.38;5007253;28;20042;-63
2022/05/07 03:36:19;;;;;;;8.77;4.22;;;;;;;5.21;91.97;97928.63;4999484;28;20042;-63
2022/05/07 03:38:48;;;;;;;6.40;4.20;;;;;;;5.14;92.29;97924.28;5003257;28;20136;-63
2022/05/07 03:41:20;;;;;;;6.20;4.32;;;;;;;5.12;92.54;97926.38;4998441;28;20058;-63
2022/05/07 03:43:47;;;;;;;6.35;3.65;;;;;;;5.20;91.92;97923.50;4987164;28;20042;-63
2022/05/07 03:46:14;;;;;;;6.93;3.97;;;;;;;5.24;91.87;97916.69;4987073;28;20046;-64
2022/05/07 03:48:50;;;;;;;8.38;4.00;;;;;;;5.30;91.29;97917.69;5014741;28;20042;-63
2022/05/07 03:51:17;;;;;;;6.53;4.45;;;;;;;5.25;91.45;97917.50;5005121;28;20117;-64
2022/05/07 03:53:44;;;;;;;8.10;4.18;;;;;;;5.29;91.02;97919.59;5007298;28;20046;-64
2022/05/07 03:56:14;;;;;;;10.10;4.70;;;;;;;5.25;91.09;97930.91;5013777;28;20041;-63
2022/05/07 03:58:41;;;;;;;13.27;4.85;;;;;;;5.28;90.65;97923.31;5004029;28;20057;-63
2022/05/07 04:01:15;;;;;;;8.73;4.40;;;;;;;5.29;90.66;97919.59;5010047;28;20040;-63
2022/05/07 04:03:42;;;;;;;6.10;3.97;;;;;;;5.31;90.85;97919.38;5006188;28;20731;-64
2022/05/07 04:06:09;;;;;;;8.90;4.63;;;;;;;5.17;91.40;97929.25;5018533;28;20042;-63
2022/05/07 04:08:36;;;;;;;6.07;3.85;;;;;;;5.19;91.58;97929.88;5014013;28;20104;-62
2022/05/07 04:11:05;;;;;;;6.82;4.38;;;;;;;5.32;90.80;97926.41;5014429;28;20034;-62
2022/05/07 04:13:32;;;;;;;9.27;4.75;;;;;;;5.29;90.87;97918.75;5003867;28;20060;-63
2022/05/07 04:16:00;;;;;;;8.75;4.50;;;;;;;5.28;90.76;97925.16;4998141;28;20149;-62
2022/05/07 04:18:32;;;;;;;8.18;4.75;;;;;;;5.19;91.66;97929.88;5019283;28;20084;-63
2022/05/07 04:21:04;;;;;;;7.05;4.65;;;;;;;5.18;91.98;97936.28;5001724;28;20046;-63
2022/05/07 04:23:31;;;;;;;7.05;4.28;;;;;;;5.18;92.06;97930.91;5016897;28;20053;-62
2022/05/07 04:25:58;;;;;;;8.20;4.18;;;;;;;5.27;91.63;97932.38;4991083;28;20046;-63
2022/05/07 04:28:27;;;;;;;7.93;4.63;;;;;;;5.30;91.00;97925.75;5007710;28;20050;-63
2022/05/07 04:30:56;;;;;;;10.27;4.70;;;;;;;5.33;90.38;97936.09;5000881;28;20447;-62
2022/05/07 04:33:27;;;;;;;9.23;4.43;;;;;;;5.25;91.28;97938.97;5017902;28;20545;-62
2022/05/07 04:35:59;;;;;;;8.32;4.53;;;;;;;5.26;91.63;97933.41;5019148;28;20046;-66
2022/05/07 04:38:27;;;;;;;8.23;4.70;;;;;;;5.30;91.48;97931.97;5005871;28;20045;-62
2022/05/07 04:40:54;;;;;;;8.43;4.65;;;;;;;5.33;91.48;97939.63;5019304;28;20174;-62
2022/05/07 04:43:25;;;;;;;7.63;4.07;;;;;;;5.39;91.70;97934.47;5008451;28;20041;-63
2022/05/07 04:45:51;;;;;;;11.38;4.68;;;;;;;5.47;91.57;97926.22;4994154;28;20168;-63
2022/05/07 04:48:23;;;;;;;8.45;4.85;;;;;;;5.52;91.59;97939.00;5010426;28;20049;-63
2022/05/07 04:50:50;;;;;;;8.07;5.15;;;;;;;5.65;91.29;97932.84;5002207;28;20042;-64
2022/05/07 04:53:32;;;;;;;9.43;4.47;;;;;;;5.76;91.00;97936.75;5005928;28;20045;-63
2022/05/07 04:56:05;;;;;;;8.15;4.63;;;;;;;5.86;90.57;97940.69;4993547;28;20290;-63
2022/05/07 04:58:38;;;;;;;9.48;5.22;;;;;;;5.94;90.14;97939.63;4996973;28;20133;-63
2022/05/07 05:01:04;;;;;;;7.72;4.30;;;;;;;6.04;89.85;97938.44;5013738;28;20038;-63
2022/05/07 05:03:39;;;;;;;7.97;3.90;;;;;;;6.19;89.92;97943.59;5011772;28;20058;-63
2022/05/07 05:06:14;;;;;;;6.63;4.47;;;;;;;6.33;89.67;97941.69;5022615;28;20115;-62
2022/05/07 05:08:57;;;;;;;8.65;4.55;;;;;;;6.40;89.44;97942.50;5012991;28;20057;-62
2022/05/07 05:11:25;;;;;;;7.30;4.95;;;;;;;6.56;89.18;97943.91;5020864;28;20172;-63
2022/05/07 05:13:53;;;;;;;7.25;4.65;;;;;;;6.69;88.62;97945.75;5006296;28;20769;-64
2022/05/07 05:16:19;;;;;;;8.50;5.07;;;;;;;6.78;88.56;97951.69;5004484;28;20038;-63
2022/05/07 05:18:50;;;;;;;8.07;4.00;;;;;;;6.85;88.18;97952.50;5005791;28;20053;-62
2022/05/07 05:21:20;;;;;;;10.23;4.60;;;;;;;6.98;88.11;97948.94;5010417;28;20034;-62
2022/05/07 05:24:03;;;;;;;10.65;4.68;;;;;;;7.13;87.82;97953.22;5010895;28;20048;-63
2022/05/07 05:26:33;;;;;;;7.28;4.82;;;;;;;7.22;87.64;97948.41;5013547;28;20780;-63
2022/05/07 05:29:02;;;;;;;7.45;4.70;;;;;;;7.36;87.27;97952.66;5013847;28;20119;-63
2022/05/07 05:31:30;;;;;;;7.90;4.45;;;;;;;7.48;87.67;97954.69;5012850;28;20038;-63
2022/05/07 05:34:08;;;;;;;7.38;4.72;;;;;;;7.64;86.89;97958.72;5009215;28;20057;-63
2022/05/07 05:36:47;;;;;;;7.97;4.55;;;;;;;7.78;86.76;97959.44;5017678;28;20902;-64
2022/05/07 05:39:14;;;;;;;7.85;4.35;;;;;;;7.86;86.76;97955.63;5003248;28;20041;-63
2022/05/07 05:41:44;;;;;;;11.35;4.25;;;;;;;8.02;86.09;97956.94;5004365;28;20448;-62
2022/05/07 05:44:11;;;;;;;7.18;4.72;;;;;;;8.20;85.70;97967.78;5003530;28;20045;-63
2022/05/07 05:46:38;;;;;;;6.68;4.60;;;;;;;8.36;86.40;97970.16;5003906;28;20045;-63
2022/05/07 05:49:05;;;;;;;7.10;5.05;;;;;;;8.53;85.84;97965.00;5009702;28;20132;-63
2022/05/07 05:51:34;;;;;;;6.70;4.25;;;;;;;8.69;85.60;97969.81;5010209;28;20566;-63
2022/05/07 05:54:01;;;;;;;8.90;4.47;;;;;;;8.84;85.77;97965.91;5012171;28;20125;-63
2022/05/07 05:56:28;;;;;;;7.13;4.28;;;;;;;8.95;85.45;97970.56;4995113;28;20057;-62
2022/05/07 05:58:57;;;;;;;8.55;4.00;;;;;;;9.11;85.23;97976.41;4997855;28;20061;-63
2022/05/07 06:01:31;;;;;;;6.82;4.03;;;;;;;9.30;84.72;97969.09;5007902;28;20412;-63
2022/05/07 06:04:10;;;;;;;6.60;4.25;;;;;;;9.53;83.99;97967.50;5011925;28;20061;-63
2022/05/07 06:06:37;;;;;;;6.90;4.00;;;;;;;9.63;83.49;97966.97;5005197;28;20056;-63
2022/05/07 06:09:03;;;;;;;6.10;4.05;;;;;;;9.64;83.29;97971.31;5001530;28;20046;-63
2022/05/07 06:11:31;;;;;;;6.55;3.90;;;;;;;9.67;82.59;97972.72;4988526;28;20042;-63
2022/05/07 06:13:58;;;;;;;7.82;3.58;;;;;;;9.74;83.04;97968.84;4989404;28;20109;-63
2022/05/07 06:16:25;;;;;;;6.72;4.40;;;;;;;9.80;82.02;97969.81;4984661;28;20042;-63
2022/05/07 06:18:54;;;;;;;7.15;3.78;;;;;;;9.90;82.08;97969.25;4993548;28;20057;-63
2022/05/07 06:21:22;;;;;;;7.90;4.07;;;;;;;10.07;80.39;97972.09;4989580;28;20054;-63
2022/05/07 06:23:48;;;;;;;6.82;3.85;;;;;;;10.27;78.75;97965.50;4993569;28;20041;-64
2022/05/07 06:29:08;;;;;;;6.60;3.65;;;;;;;10.71;75.39;97969.72;5000353;28;20053;-64
2022/05/07 06:31:38;;;;;;;5.65;3.45;;;;;;;10.88;73.71;97967.13;4991412;28;20046;-63
2022/05/07 06:34:09;;;;;;;6.82;3.38;;;;;;;11.01;73.08;97972.28;4998699;28;20512;-63
2022/05/07 06:36:43;;;;;;;6.43;3.30;;;;;;;11.19;72.80;97974.00;5003782;28;20141;-64
2022/05/07 06:39:09;;;;;;;9.77;3.50;;;;;;;11.30;72.17;97977.72;5002299;28;20037;-63
2022/05/07 06:41:36;;;;;;;8.55;3.58;;;;;;;11.43;71.74;97981.22;4987515;28;20038;-64
2022/05/07 06:44:05;;;;;;;7.13;3.67;;;;;;;11.54;71.42;97976.78;4995035;28;20072;-63
2022/05/07 06:46:33;;;;;;;6.47;3.75;;;;;;;11.62;69.78;97984.53;5002661;28;20497;-63
2022/05/07 06:49:05;;;;;;;6.30;4.28;;;;;;;11.71;69.61;97980.34;4994018;28;20081;-63
2022/05/07 06:51:49;;;;;;;8.88;3.70;;;;;;;11.90;69.21;97980.13;5000984;28;20053;-63
2022/05/07 06:54:17;;;;;;;6.57;3.70;;;;;;;12.06;68.32;97983.94;4992526;28;20081;-63
2022/05/07 06:56:43;;;;;;;5.82;3.60;;;;;;;12.21;66.84;97977.13;4985011;28;20034;-64
2022/05/07 06:59:10;;;;;;;7.50;3.30;;;;;;;12.28;66.92;97980.50;4994768;28;20540;-63
2022/05/07 07:01:37;;;;;;;5.70;3.00;;;;;;;12.28;67.24;97980.50;4994919;28;20640;-63
2022/05/07 07:04:05;;;;;;;7.30;3.97;;;;;;;12.36;67.94;97985.47;4999394;28;20046;-62
2022/05/07 07:06:31;;;;;;;5.78;3.15;;;;;;;12.39;66.66;97978.75;5019290;28;20087;-64
2022/05/07 07:08:58;;;;;;;8.23;3.28;;;;;;;12.40;67.28;97985.81;5009609;28;20052;-63
2022/05/07 07:11:25;;;;;;;5.68;3.40;;;;;;;12.48;65.77;97984.56;4997533;28;20727;-64
2022/05/07 07:13:52;;;;;;;6.30;3.08;;;;;;;12.63;66.85;97983.97;4995723;28;20046;-64
2022/05/07 07:16:18;;;;;;;8.25;3.58;;;;;;;12.72;65.65;97981.66;4991267;28;20046;-63
2022/05/07 07:18:45;;;;;;;5.10;3.10;;;;;;;12.80;66.57;97991.25;4999919;28;20513;-63
2022/05/07 07:21:12;;;;;;;5.68;3.50;;;;;;;12.87;66.17;97979.13;4991428;28;20410;-63
2022/05/07 07:23:39;;;;;;;7.15;3.67;;;;;;;12.98;66.33;97977.34;4987705;28;20045;-63
2022/05/07 07:26:06;;;;;;;5.32;3.00;;;;;;;13.01;65.29;97976.03;4985350;28;20289;-64
2022/05/07 07:28:33;;;;;;;7.72;3.13;;;;;;;13.21;65.52;97975.47;4994074;28;20053;-63
2022/05/07 07:30:59;;;;;;;4.97;3.63;;;;;;;13.36;65.77;97979.44;4994347;28;20042;-63
2022/05/07 07:33:27;;;;;;;5.20;3.25;;;;;;;13.48;66.26;97974.69;5001273;28;20057;-63
2022/05/07 07:35:53;;;;;;;6.95;3.35;;;;;;;13.57;65.48;97980.50;4996274;28;20043;-64
2022/05/07 07:38:25;;;;;;;6.30;3.27;;;;;;;13.68;65.10;97975.16;4997030;28;20153;-64
2022/05/07 07:40:53;;;;;;;8.95;5.28;;;;;;;13.75;62.39;97981.22;5000639;28;20038;-63
2022/05/07 07:43:20;;;;;;;7.75;4.05;;;;;;;13.78;61.99;97977.97;5003064;28;20501;-62
2022/05/07 07:48:32;;;;;;;9.30;3.92;;;;;;;13.99;61.00;97972.69;4999129;28;20058;-62
2022/05/07 07:50:59;;;;;;;6.97;3.55;;;;;;;14.03;60.76;97979.28;5009497;28;20583;-63
2022/05/07 07:53:26;;;;;;;6.65;4.00;;;;;;;14.11;61.13;97976.06;5017786;28;20049;-63
2022/05/07 07:55:53;;;;;;;5.47;4.15;;;;;;;14.10;61.75;97984.50;5003251;28;20049;-63
2022/05/07 07:58:20;;;;;;;8.23;4.47;;;;;;;14.12;61.22;97980.44;5004580;28;20576;-62
2022/05/07 08:00:48;;;;;;;9.68;5.15;;;;;;;14.16;60.52;97986.19;4995250;28;20042;-63
2022/05/07 08:03:17;;;;;;;8.43;4.88;;;;;;;14.19;60.73;97977.47;5006803;28;20042;-63
2022/05/07 08:05:46;;;;;;;7.60;4.93;;;;;;;14.36;61.63;97976.53;5016371;28;20151;-63
2022/05/07 08:13:46;;;;;;;6.90;4.95;;;;;;;14.38;60.29;97975.16;5007615;28;20052;-58
2022/05/07 08:16:14;;;;;;;9.30;5.50;;;;;;;14.41;61.21;97982.03;5013804;28;20042;-59
2022/05/07 08:18:41;;;;;;;8.30;4.63;;;;;;;14.60;62.31;97981.59;5009064;28;20906;-59
2022/05/07 08:21:09;;;;;;;9.07;4.93;;;;;;;14.91;62.84;97979.06;5005854;28;20224;-57
2022/05/07 08:23:37;;;;;;;14.60;5.75;;;;;;;15.07;61.31;97979.94;5011288;28;20053;-58
2022/05/07 08:26:04;;;;;;;9.45;5.93;;;;;;;14.90;59.69;97978.25;5008464;28;20056;-61
2022/05/07 08:28:31;;;;;;;7.15;5.32;;;;;;;14.85;60.70;97978.19;5018810;28;20049;-59
2022/05/07 08:30:58;;;;;;;10.10;6.00;;;;;;;15.08;62.13;97982.41;5007718;28;20049;-61
2022/05/07 08:33:25;;;;;;;9.32;6.00;;;;;;;15.26;60.22;97969.38;5006419;28;20061;-60
2022/05/07 08:35:52;;;;;;;9.95;6.18;;;;;;;15.41;61.06;97970.50;4993311;28;20109;-60
2022/05/07 08:38:21;;;;;;;9.73;6.78;;;;;;;15.42;61.16;97974.88;5012591;28;20047;-62
2022/05/07 08:40:51;;;;;;;13.25;7.53;;;;;;;15.40;57.58;97971.59;5000161;28;20038;-62
2022/05/07 08:43:19;;;;;;;10.75;6.40;;;;;;;15.58;58.97;97983.91;4995743;28;20045;-61
2022/05/07 08:45:46;;;;;;;12.23;6.72;;;;;;;15.65;57.92;97970.00;5003600;28;20053;-60
2022/05/07 08:48:12;;;;;;;7.65;5.35;;;;;;;15.77;58.69;97986.16;5006916;28;20062;-60
2022/05/07 08:50:40;;;;;;;8.85;6.30;;;;;;;15.90;59.16;97980.16;5002539;28;20041;-60
2022/05/07 08:53:07;;;;;;;8.02;6.30;;;;;;;15.93;58.76;97971.41;5002004;28;20472;-61
2022/05/07 08:55:34;;;;;;;11.52;5.38;;;;;;;15.87;56.89;97975.22;5010006;28;20120;-60
2022/05/07 08:58:01;;;;;;;8.55;5.75;;;;;;;16.01;58.48;97975.53;5004219;28;20133;-61
2022/05/07 09:00:29;;;;;;;14.38;6.30;;;;;;;16.07;57.92;97976.38;5006558;28;20049;-59
2022/05/07 09:02:57;;;;;;;7.93;5.50;;;;;;;16.18;55.41;97979.91;5016694;28;20765;-61
2022/05/07 09:05:33;;;;;;;11.07;6.55;;;;;;;15.97;55.92;97982.63;5000367;28;20053;-60
2022/05/07 09:08:01;;;;;;;7.40;4.93;;;;;;;15.97;56.75;97968.97;5008942;28;20587;-59
2022/05/07 09:10:36;;;;;;;8.18;5.13;;;;;;;16.20;57.49;97978.53;5009193;28;20049;-60
2022/05/07 09:13:12;;;;;;;6.50;4.80;;;;;;;16.29;51.39;97969.78;5006578;28;20058;-62
2022/05/07 09:15:56;;;;;;;9.65;3.90;;;;;;;16.38;52.08;97979.06;5005829;28;20041;-60
2022/05/07 09:18:25;;;;;;;7.82;4.72;;;;;;;16.45;50.44;97978.78;4996351;28;20050;-60
2022/05/07 09:21:15;;;;;;;7.25;3.63;;;;;;;16.61;49.88;97974.09;5006075;28;20540;-61
2022/05/07 09:23:48;;;;;;;6.25;4.30;;;;;;;16.56;49.68;97974.94;5011167;28;20050;-62
2022/05/07 09:26:30;;;;;;;5.43;3.92;;;;;;;16.59;51.18;97970.84;5001858;28;20639;-59
2022/05/07 09:28:58;;;;;;;9.90;4.10;;;;;;;16.46;52.92;97966.75;5002814;28;20049;-60
2022/05/07 09:31:30;;;;;;;5.95;3.65;;;;;;;16.63;51.68;97959.06;4996809;28;20045;-61
2022/05/07 09:36:44;;;;;;;6.72;3.38;;;;;;;16.82;50.15;97960.38;5006711;28;20049;-61
2022/05/07 09:39:13;;;;;;;6.28;4.00;;;;;;;16.94;49.17;97951.84;5010301;28;20067;-61
2022/05/07 09:41:42;;;;;;;6.82;3.95;;;;;;;16.91;48.85;97958.69;5012974;28;20096;-61
2022/05/07 09:44:12;;;;;;;7.97;4.20;;;;;;;16.73;50.61;97963.69;4999750;28;20131;-62
2022/05/07 09:46:39;;;;;;;9.77;6.45;;;;;;;16.76;51.93;97954.09;5015854;28;20052;-63
2022/05/07 09:49:06;;;;;;;8.00;5.40;;;;;;;16.86;51.90;97962.28;5010522;28;20049;-62
2022/05/07 09:51:33;;;;;;;7.75;4.40;;;;;;;16.73;49.63;97965.63;4998285;28;20041;-63
2022/05/07 09:59:32;;;;;;;7.65;3.50;;;;;;;16.14;47.09;97971.44;5003074;28;20053;-59
2022/05/07 10:02:25;;;;;;;5.32;2.67;;;;;;;16.22;49.60;97965.41;5001116;28;20056;-60
2022/05/07 10:05:21;;;;;;;6.68;2.20;;;;;;;16.23;44.06;97963.50;5016320;28;20099;-61
2022/05/07 10:08:12;;;;;;;5.47;2.53;;;;;;;16.52;46.09;97963.72;4997020;28;20054;-63
2022/05/07 10:10:40;;;;;;;5.95;2.58;;;;;;;16.83;45.10;97951.91;5015069;28;20076;-62
2022/05/07 10:13:08;;;;;;;7.13;2.50;;;;;;;17.08;45.89;97950.19;5017348;28;20046;-62
2022/05/07 10:15:34;;;;;;;5.28;3.00;;;;;;;17.33;45.58;97947.59;5013031;28;20053;-60
2022/05/07 10:18:07;;;;;;;7.18;3.00;;;;;;;17.34;42.97;97951.97;4997770;28;20406;-62
2022/05/07 10:20:48;;;;;;;4.40;2.20;;;;;;;17.42;43.14;97949.47;5002037;28;20047;-62
2022/05/07 10:23:32;;;;;;;3.80;2.28;;;;;;;17.78;43.41;97953.91;5017035;28;20046;-61
2022/05/07 10:26:01;;;;;;;5.85;2.95;;;;;;;17.91;42.92;97949.69;5000439;28;20053;-62
2022/05/07 10:28:38;;;;;;;5.05;2.22;;;;;;;17.79;40.54;97944.56;5009817;28;20134;-63
2022/05/07 10:31:19;;;;;;;4.88;2.13;;;;;;;17.75;42.33;97940.75;5006239;28;20065;-60
2022/05/07 10:33:46;;;;;;;5.10;2.60;;;;;;;17.41;42.37;97950.59;5003873;28;20052;-61
2022/05/07 10:36:14;;;;;;;7.00;3.13;;;;;;;17.18;43.66;97949.34;5003932;28;20053;-62
2022/05/07 10:38:45;;;;;;;5.72;2.83;;;;;;;16.93;44.57;97940.09;5005928;28;20049;-62
2022/05/07 10:41:12;;;;;;;5.55;2.55;;;;;;;16.76;43.98;97943.16;5011284;28;20128;-61
2022/05/07 10:44:00;;;;;;;5.10;2.65;;;;;;;17.02;42.76;97938.41;5018698;28;20060;-61
2022/05/07 10:46:38;;;;;;;6.30;2.83;;;;;;;17.06;41.95;97941.44;5009976;28;20052;-61
2022/05/07 10:49:05;;;;;;;5.53;2.40;;;;;;;16.75;42.39;97936.06;4998054;28;20050;-60
2022/05/07 10:51:36;;;;;;;4.32;2.45;;;;;;;16.79;43.28;97934.41;5017576;28;20551;-60
2022/05/07 10:54:20;;;;;;;7.65;2.72;;;;;;;17.10;41.93;97938.97;5008469;28;20054;-60
2022/05/07 10:56:49;;;;;;;5.22;2.55;;;;;;;17.02;40.71;97935.69;5005727;28;20042;-61
2022/05/07 10:59:16;;;;;;;6.38;2.38;;;;;;;17.12;41.97;97929.38;5004924;28;20112;-62
2022/05/07 11:01:47;;;;;;;4.57;2.10;;;;;;;17.18;41.79;97938.38;4997835;28;20049;-61
2022/05/07 11:04:17;;;;;;;4.07;2.17;;;;;;;17.01;41.55;97927.75;5002577;28;20057;-61
2022/05/07 11:06:51;;;;;;;3.70;1.70;;;;;;;16.98;41.04;97928.31;5021102;28;20087;-62
2022/05/07 11:09:25;;;;;;;4.88;2.08;;;;;;;17.11;40.20;97924.19;5004810;28;20049;-63
2022/05/07 11:11:54;;;;;;;4.43;2.17;;;;;;;17.52;39.70;97921.22;5020003;28;20042;-61
2022/05/07 11:14:30;;;;;;;8.63;3.50;;;;;;;17.61;39.46;97924.16;5015863;28;20046;-61
2022/05/07 11:17:00;;;;;;;8.23;2.13;;;;;;;17.62;39.10;97922.25;4989515;28;20081;-62
2022/05/07 11:19:34;;;;;;;5.63;2.10;;;;;;;17.54;39.16;97912.69;5009970;28;20057;-62
2022/05/07 11:22:03;;;;;;;4.72;2.10;;;;;;;17.42;39.92;97918.53;5003278;28;20046;-62
2022/05/07 11:24:33;;;;;;;4.05;2.20;;;;;;;17.93;40.39;97911.88;5018669;28;20081;-61
2022/05/07 11:27:02;;;;;;;5.27;2.23;;;;;;;18.00;38.94;97914.28;5021425;28;20111;-61
2022/05/07 11:29:30;;;;;;;4.40;1.80;;;;;;;17.85;38.43;97912.47;5013396;28;20076;-62
2022/05/07 11:32:02;;;;;;;5.90;1.90;;;;;;;17.91;39.02;97908.59;5013479;28;20050;-61
2022/05/07 11:34:34;;;;;;;3.85;2.10;;;;;;;18.37;39.18;97900.25;4999055;28;20046;-62
2022/05/07 11:37:15;;;;;;;;;;;;;;;18.55;38.36;97902.25;5007438;28;20057;-62
2022/05/07 11:39:59;;;;;;;3.50;2.10;;;;;;;18.47;38.50;97902.88;5006145;28;19921;-60
2022/05/07 11:42:33;;;;;;;6.35;1.83;;;;;;;18.63;38.34;97895.28;5012966;28;20038;-60
2022/05/07 11:45:27;;;;;;;7.85;3.90;;;;;;;18.71;37.61;97888.34;5011832;28;20191;-61
2022/05/07 11:47:58;;;;;;;4.07;1.80;;;;;;;19.13;37.18;97885.09;5011519;28;20112;-62
2022/05/07 11:50:32;;;;;;;3.80;1.85;;;;;;;19.14;36.34;97886.72;5011748;28;20618;-61
2022/05/07 11:53:10;;;;;;;4.88;1.70;;;;;;;19.54;37.24;97889.19;5010403;28;20053;-62
2022/05/07 11:55:36;;;;;;;41.35;15.32;;;;;;;19.23;36.33;97890.44;4998176;28;20064;-62
2022/05/07 11:58:12;;;;;;;12.35;4.70;;;;;;;19.41;37.00;97885.25;5015751;28;20056;-62
2022/05/07 12:00:44;;;;;;;4.25;2.03;;;;;;;19.51;36.45;97876.84;4998159;28;20049;-62
2022/05/07 12:03:11;;;;;;;7.97;3.35;;;;;;;19.49;36.32;97876.31;5012265;28;20061;-63
2022/05/07 12:05:46;;;;;;;6.50;2.55;;;;;;;19.64;36.85;97875.28;5005399;28;20052;-62
2022/05/07 12:08:20;;;;;;;2.97;1.88;;;;;;;19.56;36.38;97873.19;5014051;28;20571;-62
2022/05/07 12:10:48;;;;;;;36.85;14.10;;;;;;;19.56;36.57;97879.53;5004852;28;20715;-61
2022/05/07 12:13:17;;;;;;;6.88;2.42;;;;;;;20.13;36.86;97872.28;5013736;28;20042;-63
2022/05/07 12:18:35;;;;;;;3.38;1.63;;;;;;;20.97;35.63;97866.78;5002133;28;20045;-62